Time;durP1;ratioP1;P1;durP2;ratioP2;P2;SDS_P1;SDS_P2;PMS_P1;PMS_P2;Temp;Humidity;BMP_temperature;BMP_pressure;BME280_temperature;BME280_humidity;BME280_pressure;Samples;Min_cycle;Max_cycle;Signal;HPM_P1;HPM_P2
2022/05/26 00:01:48;;;;;;;0.30;0.17;;;;;;;25.15;35.00;99658.81;5069346;28;20048;-67
2022/05/26 00:04:15;;;;;;;0.20;0.20;;;;;;;25.13;35.07;99663.19;5068927;28;20032;-67
2022/05/26 00:06:43;;;;;;;0.13;0.10;;;;;;;25.15;35.30;99664.41;5068993;28;20044;-67
2022/05/26 00:09:08;;;;;;;0.35;0.20;;;;;;;25.14;34.98;99662.78;5069651;28;20449;-67
2022/05/26 00:11:36;;;;;;;0.35;0.20;;;;;;;25.14;35.08;99656.38;5072740;28;20253;-67
2022/05/26 00:14:07;;;;;;;0.30;0.20;;;;;;;25.14;34.94;99654.38;5071947;28;20057;-67
2022/05/26 00:16:44;;;;;;;0.28;0.17;;;;;;;25.13;35.13;99663.97;5072187;28;20120;-67
2022/05/26 00:19:15;;;;;;;0.10;0.10;;;;;;;25.11;35.21;99652.41;5072465;28;20059;-67
2022/05/26 00:21:41;;;;;;;0.73;0.30;;;;;;;25.14;35.02;99661.97;5072335;28;20116;-67
2022/05/26 00:24:07;;;;;;;0.30;0.17;;;;;;;25.12;34.90;99662.38;5072111;28;20064;-67
2022/05/26 00:26:33;;;;;;;0.40;0.20;;;;;;;25.11;35.02;99660.00;5072349;28;20131;-67
2022/05/26 00:28:58;;;;;;;0.35;0.20;;;;;;;25.08;35.01;99655.22;5072347;28;20136;-67
2022/05/26 00:31:24;;;;;;;0.20;0.20;;;;;;;25.10;35.10;99662.00;5072497;28;20055;-67
2022/05/26 00:33:49;;;;;;;0.57;0.35;;;;;;;25.09;34.89;99654.81;5053813;28;20033;-68
2022/05/26 00:36:17;;;;;;;0.30;0.30;;;;;;;25.08;35.08;99664.41;5071990;28;20072;-67
2022/05/26 00:38:43;;;;;;;0.43;0.25;;;;;;;25.05;35.10;99662.38;5072325;28;20070;-67
2022/05/26 00:41:12;;;;;;;0.30;0.20;;;;;;;25.06;35.04;99666.78;5072284;28;20048;-67
2022/05/26 00:43:43;;;;;;;0.28;0.20;;;;;;;25.04;34.99;99654.38;5072163;28;20048;-70
2022/05/26 00:46:20;;;;;;;0.68;0.30;;;;;;;25.04;35.37;99655.19;5072127;28;20043;-70
2022/05/26 00:48:51;;;;;;;0.35;0.25;;;;;;;25.05;35.39;99662.38;5072057;28;20048;-70
2022/05/26 00:51:21;;;;;;;0.10;0.10;;;;;;;25.05;35.17;99658.78;5072079;28;20040;-70
2022/05/26 00:53:52;;;;;;;0.30;0.20;;;;;;;25.05;35.21;99662.38;5071677;28;20041;-70
2022/05/26 00:56:32;;;;;;;0.10;0.10;;;;;;;25.03;35.16;99659.16;5071525;28;20051;-70
2022/05/26 00:59:10;;;;;;;0.35;0.20;;;;;;;25.04;35.14;99654.38;5072009;28;20044;-70
2022/05/26 01:01:36;;;;;;;0.32;0.20;;;;;;;25.02;35.20;99653.97;5070958;28;20045;-70
2022/05/26 01:04:07;;;;;;;0.40;0.20;;;;;;;25.00;35.30;99651.53;5072104;28;20518;-70
2022/05/26 01:06:45;;;;;;;0.38;0.30;;;;;;;24.99;35.18;99659.13;5072037;28;20553;-70
2022/05/26 01:09:10;;;;;;;0.20;0.20;;;;;;;25.01;35.31;99663.56;5071576;28;20528;-70
2022/05/26 01:11:39;;;;;;;0.28;0.20;;;;;;;25.01;35.55;99653.16;5071707;28;20061;-70
2022/05/26 01:14:27;;;;;;;0.13;0.10;;;;;;;24.98;35.32;99649.16;5071451;28;20200;-70
2022/05/26 01:16:59;;;;;;;0.63;0.20;;;;;;;25.00;35.19;99654.34;5071313;28;20569;-70
2022/05/26 01:19:46;;;;;;;0.20;0.20;;;;;;;25.01;35.23;99650.38;5071542;28;20048;-70
2022/05/26 01:22:34;;;;;;;0.10;0.10;;;;;;;24.98;35.31;99653.94;5070508;28;20460;-70
2022/05/26 01:25:14;;;;;;;0.13;0.13;;;;;;;24.96;35.23;99661.94;5071342;28;20044;-70
2022/05/26 01:27:46;;;;;;;0.20;0.20;;;;;;;24.97;35.17;99653.16;5071244;28;20036;-67
2022/05/26 01:30:23;;;;;;;0.30;0.23;;;;;;;24.98;35.15;99659.53;5071323;28;20128;-67
2022/05/26 01:33:13;;;;;;;0.30;0.20;;;;;;;24.95;35.25;99661.16;5068136;28;20045;-67
2022/05/26 01:35:48;;;;;;;0.20;0.20;;;;;;;24.95;35.20;99655.56;5048354;28;20052;-67
2022/05/26 01:38:35;;;;;;;0.50;0.30;;;;;;;24.95;35.29;99660.34;5050954;28;20059;-70
2022/05/26 01:41:19;;;;;;;0.50;0.20;;;;;;;24.95;35.11;99655.56;5051055;28;20056;-70
2022/05/26 01:43:44;;;;;;;0.20;0.20;;;;;;;24.96;35.43;99670.34;5050986;28;20484;-67
2022/05/26 01:46:24;;;;;;;0.47;0.20;;;;;;;24.96;35.48;99664.75;5032884;28;20102;-67
2022/05/26 01:49:04;;;;;;;0.50;0.30;;;;;;;24.92;35.20;99672.31;5050743;28;20417;-67
2022/05/26 01:51:35;;;;;;;0.38;0.20;;;;;;;24.93;35.26;99652.34;5050956;28;20045;-67
2022/05/26 01:54:04;;;;;;;0.40;0.30;;;;;;;24.93;35.46;99660.75;5050827;28;20515;-67
2022/05/26 01:56:43;;;;;;;0.20;0.10;;;;;;;24.93;35.31;99677.53;5050721;28;20583;-67
2022/05/26 01:59:37;;;;;;;0.40;0.20;;;;;;;24.91;35.47;99665.94;5050895;28;20053;-67
2022/05/26 02:02:22;;;;;;;0.10;0.10;;;;;;;24.91;35.44;99670.72;5050800;28;20045;-67
2022/05/26 02:04:58;;;;;;;0.50;0.25;;;;;;;24.91;35.21;99665.13;5050585;28;20132;-67
2022/05/26 02:07:35;;;;;;;0.20;0.20;;;;;;;24.91;35.18;99665.13;5050790;28;20052;-67
2022/05/26 02:10:07;;;;;;;0.25;0.20;;;;;;;24.91;35.39;99653.94;5050638;28;20061;-67
2022/05/26 02:12:36;;;;;;;0.40;0.20;;;;;;;24.91;35.22;99659.53;5050740;28;20048;-70
2022/05/26 02:15:07;;;;;;;0.15;0.15;;;;;;;24.91;35.23;99656.72;5050184;28;20114;-70
2022/05/26 02:17:39;;;;;;;0.32;0.30;;;;;;;24.90;35.11;99647.53;5050200;28;20052;-70
2022/05/26 02:20:14;;;;;;;0.20;0.20;;;;;;;24.92;35.13;99655.53;5050513;28;20502;-70
2022/05/26 02:22:49;;;;;;;0.25;0.20;;;;;;;24.91;35.22;99660.31;5049104;28;20048;-70
2022/05/26 02:25:21;;;;;;;0.20;0.20;;;;;;;24.89;35.42;99656.34;5050157;28;20366;-70
2022/05/26 02:27:52;;;;;;;0.10;0.10;;;;;;;24.87;35.30;99655.94;5050203;28;20060;-70
2022/05/26 02:30:21;;;;;;;0.45;0.28;;;;;;;24.89;35.40;99656.34;5049860;28;20049;-70
2022/05/26 02:32:49;;;;;;;0.20;0.20;;;;;;;24.88;35.39;99651.94;5049382;28;20178;-70
2022/05/26 02:35:27;;;;;;;0.10;0.10;;;;;;;24.87;35.46;99655.94;5031865;28;20045;-70
2022/05/26 02:37:56;;;;;;;0.20;0.10;;;;;;;24.89;35.50;99653.53;5050093;28;20037;-70
2022/05/26 02:40:21;;;;;;;0.30;0.20;;;;;;;24.87;35.63;99659.53;5050292;28;20049;-70
2022/05/26 02:42:54;;;;;;;0.30;0.30;;;;;;;24.86;35.49;99663.53;5050151;28;20458;-70
2022/05/26 02:45:46;;;;;;;0.17;0.10;;;;;;;24.84;35.65;99665.09;5050074;28;20061;-70
2022/05/26 02:48:30;;;;;;;0.47;0.32;;;;;;;24.85;35.54;99667.50;5050280;28;20079;-70
2022/05/26 02:51:17;;;;;;;0.20;0.20;;;;;;;24.82;35.57;99670.31;5032361;28;20119;-67
2022/05/26 02:54:09;;;;;;;0.20;0.20;;;;;;;24.79;35.86;99676.69;5050088;28;20078;-67
2022/05/26 02:56:51;;;;;;;0.60;0.30;;;;;;;24.79;36.04;99679.47;5049914;28;20044;-67
2022/05/26 02:59:59;;;;;;;0.28;0.13;;;;;;;24.76;35.89;99674.69;5049813;28;20053;-67
2022/05/26 03:03:00;;;;;;;0.10;0.10;;;;;;;24.78;35.97;99680.69;5032135;28;20037;-67
2022/05/26 03:05:36;;;;;;;0.13;0.13;;;;;;;24.76;36.27;99677.47;5011320;28;20548;-67
2022/05/26 03:08:06;;;;;;;0.40;0.20;;;;;;;24.76;36.19;99678.28;5050044;28;20051;-67
2022/05/26 03:10:32;;;;;;;0.80;0.30;;;;;;;24.78;36.13;99683.47;5049977;28;20508;-67
2022/05/26 03:12:59;;;;;;;0.20;0.20;;;;;;;24.76;36.12;99685.88;5049912;28;20462;-67
2022/05/26 03:15:26;;;;;;;0.28;0.20;;;;;;;24.72;36.35;99683.09;5049226;28;20492;-67
2022/05/26 03:17:51;;;;;;;0.70;0.30;;;;;;;24.72;36.19;99683.09;5049305;28;20056;-67
2022/05/26 03:20:17;;;;;;;0.22;0.20;;;;;;;24.70;36.22;99680.66;5049888;28;20045;-67
2022/05/26 03:22:43;;;;;;;0.10;0.10;;;;;;;24.70;36.08;99680.66;5049575;28;20080;-67
2022/05/26 03:25:09;;;;;;;0.20;0.20;;;;;;;24.69;36.37;99690.25;5049582;28;20488;-67
2022/05/26 03:27:34;;;;;;;0.60;0.25;;;;;;;24.69;36.33;99689.44;5049479;28;20129;-67
2022/05/26 03:29:59;;;;;;;0.35;0.20;;;;;;;24.69;36.25;99681.84;5049521;28;20040;-68
2022/05/26 03:32:25;;;;;;;0.20;0.20;;;;;;;24.67;36.24;99678.66;5049521;28;20120;-67
2022/05/26 03:43:17;;;;;;;0.20;0.20;;;;;;;24.66;36.38;99682.66;4988153;28;20173;-67
2022/05/26 03:45:43;;;;;;;0.22;0.15;;;;;;;24.65;36.17;99692.25;4990541;28;20938;-67
2022/05/26 03:48:09;;;;;;;0.50;0.30;;;;;;;24.64;36.63;99687.03;4991353;28;20054;-67
2022/05/26 03:50:35;;;;;;;0.38;0.20;;;;;;;24.63;36.41;99691.03;4991342;28;20414;-67
2022/05/26 03:53:01;;;;;;;0.40;0.22;;;;;;;24.64;36.64;99696.22;4991293;28;20141;-67
2022/05/26 03:55:27;;;;;;;0.30;0.30;;;;;;;24.63;36.68;99689.03;4990763;28;20137;-67
2022/05/26 03:57:53;;;;;;;0.20;0.20;;;;;;;24.61;36.47;99696.22;4991120;28;20042;-67
2022/05/26 04:00:22;;;;;;;0.20;0.20;;;;;;;24.61;36.57;99697.03;4990916;28;20469;-67
2022/05/26 04:02:47;;;;;;;0.20;0.20;;;;;;;24.60;36.84;99703.81;4991355;28;20091;-67
2022/05/26 04:05:13;;;;;;;0.30;0.20;;;;;;;24.60;36.72;99712.19;4990996;28;20073;-67
2022/05/26 04:07:39;;;;;;;0.15;0.13;;;;;;;24.61;36.72;99705.41;4990982;28;20145;-67
2022/05/26 04:10:07;;;;;;;0.20;0.20;;;;;;;24.60;36.67;99706.59;4991076;28;20050;-67
2022/05/26 04:12:33;;;;;;;0.35;0.20;;;;;;;24.59;36.79;99709.81;4990933;28;20050;-67
2022/05/26 04:15:00;;;;;;;0.17;0.17;;;;;;;24.57;36.67;99707.38;4990536;28;20132;-67
2022/05/26 04:17:25;;;;;;;0.20;0.20;;;;;;;24.58;36.96;99720.19;5032421;28;20151;-67
2022/05/26 04:19:51;;;;;;;0.52;0.22;;;;;;;24.56;36.77;99716.97;5052066;28;20447;-67
2022/05/26 04:22:23;;;;;;;0.32;0.30;;;;;;;24.58;36.97;99727.78;5052405;28;20466;-67
2022/05/26 04:24:53;;;;;;;0.13;0.13;;;;;;;24.57;36.99;99740.13;5052437;28;20045;-67
2022/05/26 04:27:20;;;;;;;0.65;0.30;;;;;;;24.56;36.97;99730.94;5052280;28;20128;-70
2022/05/26 04:29:45;;;;;;;0.13;0.10;;;;;;;24.56;37.13;99730.16;5051952;28;20103;-70
2022/05/26 04:32:12;;;;;;;0.20;0.20;;;;;;;24.56;37.14;99741.34;5049937;28;20053;-70
2022/05/26 04:34:39;;;;;;;0.82;0.30;;;;;;;24.56;37.14;99742.13;5052342;28;20132;-70
2022/05/26 04:37:04;;;;;;;0.22;0.20;;;;;;;24.55;37.15;99751.72;5051838;28;20048;-68
2022/05/26 04:39:30;;;;;;;0.57;0.32;;;;;;;24.55;37.27;99751.72;5051898;28;20041;-67
2022/05/26 04:42:00;;;;;;;0.10;0.10;;;;;;;24.54;37.11;99752.91;5052282;28;20052;-67
2022/05/26 04:44:31;;;;;;;0.10;0.10;;;;;;;24.56;37.20;99753.31;5059108;28;20041;-67
2022/05/26 04:46:57;;;;;;;0.20;0.20;;;;;;;24.57;37.40;99752.13;5056804;28;20052;-67
2022/05/26 04:49:22;;;;;;;0.22;0.20;;;;;;;24.56;37.45;99756.13;5060406;28;20049;-67
2022/05/26 04:51:48;;;;;;;0.90;0.30;;;;;;;24.55;37.37;99760.13;5053933;28;20440;-67
2022/05/26 04:54:13;;;;;;;0.40;0.30;;;;;;;24.56;37.58;99767.31;5052055;28;20041;-67
2022/05/26 04:56:38;;;;;;;0.43;0.30;;;;;;;24.57;37.59;99768.91;5050266;28;20045;-67
2022/05/26 04:59:07;;;;;;;0.30;0.20;;;;;;;24.54;37.74;99769.69;5051787;28;20577;-67
2022/05/26 05:01:33;;;;;;;0.82;0.30;;;;;;;24.58;37.71;99775.31;5051763;28;20071;-67
2022/05/26 05:04:00;;;;;;;0.40;0.20;;;;;;;24.60;37.75;99772.94;5052016;28;20472;-67
2022/05/26 05:06:25;;;;;;;1.20;0.20;;;;;;;24.59;37.58;99774.94;5051721;28;20037;-67
2022/05/26 05:08:51;;;;;;;0.25;0.20;;;;;;;24.57;37.83;99768.91;5051704;28;20033;-67
2022/05/26 05:11:16;;;;;;;0.50;0.25;;;;;;;24.58;37.74;99781.72;5051953;28;20041;-67
2022/05/26 05:13:43;;;;;;;0.20;0.20;;;;;;;24.61;37.68;99778.13;5051595;28;20045;-67
2022/05/26 05:16:15;;;;;;;0.20;0.20;;;;;;;24.60;37.69;99779.31;5051192;28;20115;-67
2022/05/26 05:18:41;;;;;;;0.38;0.20;;;;;;;24.61;37.79;99778.13;5051311;28;20095;-67
2022/05/26 05:21:10;;;;;;;0.10;0.10;;;;;;;24.63;37.92;99784.13;5051635;28;20056;-67
2022/05/26 05:23:41;;;;;;;0.40;0.22;;;;;;;24.62;37.67;99778.94;5051585;28;20120;-67
2022/05/26 05:26:10;;;;;;;0.45;0.30;;;;;;;24.65;37.88;99781.75;5033988;28;20060;-70
2022/05/26 05:28:42;;;;;;;0.65;0.30;;;;;;;24.64;37.65;99785.72;5051127;28;20060;-70
2022/05/26 05:31:25;;;;;;;0.10;0.10;;;;;;;24.65;37.65;99773.38;5051454;28;20480;-70
2022/05/26 05:34:00;;;;;;;0.25;0.20;;;;;;;24.67;37.53;99784.97;5051351;28;20140;-70
2022/05/26 05:36:28;;;;;;;0.28;0.28;;;;;;;24.68;37.69;99780.97;5050733;28;21545;-71
2022/05/26 05:38:56;;;;;;;0.50;0.30;;;;;;;24.68;37.74;99785.75;5050932;28;20532;-70
2022/05/26 05:41:21;;;;;;;1.02;0.30;;;;;;;24.65;37.55;99787.34;5051311;28;20447;-70
2022/05/26 05:43:48;;;;;;;0.30;0.25;;;;;;;24.68;37.86;99786.56;5051190;28;20041;-70
2022/05/26 05:46:19;;;;;;;0.63;0.35;;;;;;;24.69;37.58;99788.16;5051040;28;20052;-70
2022/05/26 05:48:45;;;;;;;0.30;0.20;;;;;;;24.68;37.72;99780.97;5051041;28;20135;-70
2022/05/26 05:51:12;;;;;;;0.75;0.43;;;;;;;24.72;37.49;99792.19;5050983;28;20337;-70
2022/05/26 05:53:37;;;;;;;0.30;0.20;;;;;;;24.70;37.51;99789.75;5051055;28;20037;-70
2022/05/26 05:56:03;;;;;;;0.45;0.30;;;;;;;24.74;37.55;99800.19;5050883;28;20421;-70
2022/05/26 05:58:29;;;;;;;0.20;0.20;;;;;;;24.74;37.77;99802.97;5050276;28;20077;-70
2022/05/26 06:00:54;;;;;;;0.30;0.30;;;;;;;24.73;37.47;99802.19;5050670;28;20040;-70
2022/05/26 06:03:20;;;;;;;0.80;0.40;;;;;;;24.81;37.51;99806.59;5050878;28;20095;-70
2022/05/26 06:05:46;;;;;;;1.17;0.28;;;;;;;24.83;37.52;99809.00;5050748;28;20366;-70
2022/05/26 06:08:11;;;;;;;0.40;0.20;;;;;;;24.87;37.29;99807.03;5050262;28;20251;-70
2022/05/26 06:10:37;;;;;;;0.40;0.30;;;;;;;24.85;37.63;99810.19;5050889;28;20045;-70
2022/05/26 06:13:02;;;;;;;0.40;0.20;;;;;;;24.78;37.36;99800.97;5050700;28;20077;-70
2022/05/26 06:15:28;;;;;;;0.30;0.30;;;;;;;24.82;37.64;99816.59;5050669;28;20452;-70
2022/05/26 06:17:53;;;;;;;0.20;0.20;;;;;;;24.84;37.59;99816.19;5050573;28;20382;-70
2022/05/26 06:20:19;;;;;;;0.40;0.30;;;;;;;24.82;37.47;99819.41;5050493;28;20081;-70
2022/05/26 06:22:46;;;;;;;0.30;0.30;;;;;;;24.86;37.59;99825.81;5050382;28;20045;-70
2022/05/26 06:25:15;;;;;;;0.63;0.30;;;;;;;24.90;37.50;99820.22;5050528;28;20124;-70
2022/05/26 06:30:30;;;;;;;0.65;0.30;;;;;;;24.98;36.98;99830.25;5050633;28;20085;-70
2022/05/26 06:38:32;;;;;;;0.20;0.20;;;;;;;24.88;37.62;99839.41;5050329;28;20099;-70
2022/05/26 06:42:05;;;;;;;0.85;0.40;;;;;;;24.89;37.34;99841.00;5050114;28;20040;-70
2022/05/26 06:43:43;;;;;;;0.45;0.30;;;;;;;24.94;37.26;99843.44;5050133;28;20132;-70
2022/05/26 06:46:08;;;;;;;0.47;0.30;;;;;;;24.95;37.42;99845.03;5050343;28;20416;-70
2022/05/26 06:48:33;;;;;;;0.30;0.30;;;;;;;24.96;37.54;99841.84;5049918;28;20073;-70
2022/05/26 06:50:59;;;;;;;0.28;0.20;;;;;;;24.97;37.20;99837.06;5050327;28;20037;-70
2022/05/26 06:53:24;;;;;;;0.55;0.40;;;;;;;24.96;37.30;99844.66;5032032;28;20471;-70
2022/05/26 06:55:50;;;;;;;0.40;0.30;;;;;;;24.91;37.44;99838.63;5049944;28;20056;-70
2022/05/26 06:58:15;;;;;;;0.20;0.20;;;;;;;24.97;37.28;99837.84;5049962;28;20374;-70
2022/05/26 07:00:42;;;;;;;0.43;0.30;;;;;;;25.02;37.27;99844.28;5049623;28;20091;-70
2022/05/26 07:03:08;;;;;;;0.25;0.20;;;;;;;25.05;37.17;99844.31;5049949;28;20049;-70
2022/05/26 07:05:37;;;;;;;0.52;0.30;;;;;;;25.02;37.17;99842.28;5049943;28;20041;-70
2022/05/26 07:08:03;;;;;;;0.40;0.30;;;;;;;25.03;37.08;99838.28;5050024;28;20053;-70
2022/05/26 07:10:30;;;;;;;0.68;0.30;;;;;;;25.02;37.15;99836.69;5032088;28;20459;-70
2022/05/26 07:12:55;;;;;;;0.90;0.40;;;;;;;25.01;37.37;99835.09;5049643;28;20099;-70
2022/05/26 07:15:21;;;;;;;0.55;0.20;;;;;;;25.01;37.22;99840.69;5049595;28;20461;-70
2022/05/26 07:17:47;;;;;;;0.22;0.20;;;;;;;25.05;36.92;99838.72;5049299;28;20103;-70
2022/05/26 07:20:13;;;;;;;0.55;0.25;;;;;;;25.11;36.81;99827.94;5048512;28;20102;-70
2022/05/26 07:22:39;;;;;;;0.32;0.30;;;;;;;25.12;36.65;99838.75;5054082;28;20056;-70
2022/05/26 07:25:05;;;;;;;0.40;0.30;;;;;;;25.09;36.77;99842.34;5069693;28;20111;-70
2022/05/26 07:27:31;;;;;;;0.17;0.17;;;;;;;25.10;36.51;99831.94;5051246;28;20044;-70
2022/05/26 07:29:56;;;;;;;0.43;0.30;;;;;;;25.08;36.59;99825.94;5069372;28;20144;-67
2022/05/26 07:32:22;;;;;;;1.00;0.30;;;;;;;25.09;36.56;99830.34;5051561;28;20048;-67
2022/05/26 07:34:48;;;;;;;0.32;0.28;;;;;;;25.09;36.65;99824.75;5069591;28;20548;-67
2022/05/26 07:42:41;;;;;;;0.50;0.30;;;;;;;25.14;36.29;99839.13;5069738;28;20064;-67
2022/05/26 07:45:08;;;;;;;0.47;0.20;;;;;;;25.15;36.39;99835.16;5069566;28;20040;-70
2022/05/26 07:47:34;;;;;;;0.35;0.25;;;;;;;25.15;36.40;99834.38;5069343;28;20040;-70
2022/05/26 07:49:59;;;;;;;0.80;0.30;;;;;;;25.16;36.30;99833.16;5069234;28;20575;-70
2022/05/26 07:52:25;;;;;;;0.22;0.15;;;;;;;25.17;36.47;99834.78;5069357;28;20511;-70
2022/05/26 07:54:51;;;;;;;1.00;0.32;;;;;;;25.19;36.44;99837.97;5069390;28;20042;-70
2022/05/26 07:57:23;;;;;;;0.20;0.20;;;;;;;25.18;36.35;99837.16;5068664;28;20045;-70
2022/05/26 07:59:50;;;;;;;0.52;0.30;;;;;;;25.22;36.42;99840.78;5069081;28;20076;-70
2022/05/26 08:02:16;;;;;;;0.20;0.17;;;;;;;25.20;36.04;99836.75;5051165;28;20047;-70
2022/05/26 08:04:41;;;;;;;0.43;0.25;;;;;;;25.22;36.25;99843.59;5069223;28;20140;-70
2022/05/26 08:07:07;;;;;;;0.70;0.28;;;;;;;25.24;36.25;99837.59;5069211;28;20128;-70
2022/05/26 08:09:32;;;;;;;0.20;0.10;;;;;;;25.25;36.32;99844.78;5068993;28;20055;-70
2022/05/26 08:11:57;;;;;;;0.63;0.20;;;;;;;25.22;36.26;99843.59;5069290;28;20032;-70
2022/05/26 08:14:23;;;;;;;0.45;0.30;;;;;;;25.23;36.18;99839.59;5069020;28;20459;-70
2022/05/26 08:16:49;;;;;;;0.65;0.30;;;;;;;25.23;36.34;99841.59;5068959;28;20049;-70
2022/05/26 08:19:14;;;;;;;0.17;0.17;;;;;;;25.22;36.16;99846.41;5068791;28;20055;-70
2022/05/26 08:21:40;;;;;;;0.80;0.30;;;;;;;25.24;36.30;99844.00;5068694;28;20073;-70
2022/05/26 08:24:06;;;;;;;0.40;0.13;;;;;;;25.24;36.21;99848.78;5068796;28;20418;-70
2022/05/26 08:26:31;;;;;;;0.38;0.25;;;;;;;25.27;36.04;99852.78;5068570;28;20400;-68
2022/05/26 08:28:57;;;;;;;0.80;0.32;;;;;;;25.23;36.30;99853.59;5068822;28;20037;-67
2022/05/26 08:31:24;;;;;;;0.73;0.30;;;;;;;25.25;36.01;99844.78;5071158;28;20090;-67
2022/05/26 08:33:50;;;;;;;1.55;0.30;;;;;;;25.24;36.00;99854.38;5072359;28;20048;-67
2022/05/26 08:36:20;;;;;;;0.30;0.20;;;;;;;25.22;36.00;99843.59;5072061;28;20051;-67
2022/05/26 08:38:46;;;;;;;1.08;0.38;;;;;;;25.24;35.96;99844.00;5072024;28;20579;-68
2022/05/26 08:41:18;;;;;;;1.85;0.32;;;;;;;25.27;36.13;99841.59;5071888;28;20471;-67
2022/05/26 08:44:01;;;;;;;1.10;0.28;;;;;;;25.25;36.16;99842.78;5053876;28;20036;-67
2022/05/26 08:47:01;;;;;;;0.80;0.40;;;;;;;25.30;35.96;99849.22;5072023;28;20050;-67
2022/05/26 08:49:44;;;;;;;1.15;0.40;;;;;;;25.33;35.97;99857.63;5071609;28;20053;-67
2022/05/26 08:52:15;;;;;;;0.73;0.30;;;;;;;25.34;35.88;99844.41;5053906;28;20402;-67
2022/05/26 08:55:02;;;;;;;0.60;0.20;;;;;;;25.32;35.90;99847.63;5071883;28;20125;-67
2022/05/26 08:57:57;;;;;;;0.55;0.20;;;;;;;25.31;36.10;99854.41;5071767;28;20048;-67
2022/05/26 09:00:25;;;;;;;0.95;0.20;;;;;;;25.36;35.74;99856.00;5071729;28;20056;-67
2022/05/26 09:02:58;;;;;;;1.48;0.40;;;;;;;25.34;35.92;99847.22;5071517;28;20561;-67
2022/05/26 09:05:24;;;;;;;0.93;0.20;;;;;;;25.36;35.85;99854.03;5053633;28;20141;-67
2022/05/26 09:13:45;;;;;;;0.40;0.30;;;;;;;25.36;35.58;99854.03;5071606;28;20071;-67
2022/05/26 09:16:12;;;;;;;1.23;0.30;;;;;;;25.43;35.66;99847.63;5071322;28;20509;-67
2022/05/26 09:18:40;;;;;;;0.85;0.25;;;;;;;25.42;35.52;99844.03;5070849;28;20067;-67
2022/05/26 09:21:33;;;;;;;0.90;0.30;;;;;;;25.43;35.95;99837.25;5063546;28;20065;-67
2022/05/26 09:24:17;;;;;;;;;;;;;;;25.45;35.83;99837.66;5051916;28;20101;-67
2022/05/26 09:26:56;;;;;;;0.32;0.30;;;;;;;25.47;35.65;99840.06;5051307;28;19927;-67
2022/05/26 09:29:32;;;;;;;1.05;0.40;;;;;;;25.44;35.90;99850.06;5051262;28;20132;-67
2022/05/26 09:31:59;;;;;;;0.80;0.30;;;;;;;25.46;35.86;99852.47;5051343;28;20132;-67
2022/05/26 09:34:34;;;;;;;0.95;0.30;;;;;;;25.44;35.99;99846.47;5051157;28;20500;-67
2022/05/26 09:37:07;;;;;;;0.22;0.20;;;;;;;25.45;35.83;99842.47;5051424;28;20084;-67
2022/05/26 09:39:42;;;;;;;0.40;0.30;;;;;;;25.49;35.74;99844.06;5050894;28;20131;-67
2022/05/26 09:42:16;;;;;;;0.80;0.30;;;;;;;25.48;35.80;99845.25;5050248;28;20098;-67
2022/05/26 09:45:07;;;;;;;0.20;0.20;;;;;;;25.50;35.88;99839.25;5051103;28;20056;-67
2022/05/26 09:47:53;;;;;;;0.22;0.20;;;;;;;25.51;35.98;99844.47;5051068;28;20061;-67
2022/05/26 09:50:52;;;;;;;0.43;0.30;;;;;;;25.45;36.25;99836.84;5051140;28;20048;-67
2022/05/26 09:53:43;;;;;;;0.40;0.22;;;;;;;25.49;36.27;99834.84;5038686;28;20044;-67
2022/05/26 09:56:12;;;;;;;0.30;0.28;;;;;;;25.49;36.02;99834.84;5057479;28;20147;-67
2022/05/26 09:58:41;;;;;;;0.50;0.28;;;;;;;25.47;36.00;99831.66;5055051;28;20143;-67
2022/05/26 10:01:35;;;;;;;0.35;0.20;;;;;;;25.46;36.29;99844.84;5050009;28;20417;-67
2022/05/26 10:04:41;;;;;;;0.63;0.28;;;;;;;25.51;36.45;99847.28;5050216;28;20079;-67
2022/05/26 10:07:22;;;;;;;0.25;0.17;;;;;;;25.54;36.46;99831.66;5048867;28;20571;-67
2022/05/26 10:09:54;;;;;;;0.45;0.17;;;;;;;25.52;36.45;99825.66;5050512;28;20053;-67
2022/05/26 10:12:44;;;;;;;0.45;0.38;;;;;;;25.57;36.44;99839.25;5050803;28;20398;-67
2022/05/26 10:15:21;;;;;;;0.38;0.20;;;;;;;25.60;36.61;99837.69;5049004;28;20044;-67
2022/05/26 10:18:03;;;;;;;0.43;0.20;;;;;;;25.61;36.65;99830.88;5050630;28;20151;-68
2022/05/26 10:20:54;;;;;;;0.30;0.20;;;;;;;25.60;36.69;99829.28;5050409;28;20106;-67
2022/05/26 10:23:26;;;;;;;0.47;0.20;;;;;;;25.54;36.80;99834.47;5045442;28;20087;-67
2022/05/26 10:26:01;;;;;;;0.57;0.30;;;;;;;25.52;36.66;99829.28;5050612;28;20052;-67
2022/05/26 10:28:32;;;;;;;0.40;0.15;;;;;;;25.55;36.63;99830.47;5050670;28;20555;-67
2022/05/26 10:31:24;;;;;;;0.82;0.30;;;;;;;25.57;36.45;99822.47;5048831;28;20159;-67
2022/05/26 10:34:04;;;;;;;0.50;0.40;;;;;;;25.61;36.71;99814.06;5012079;28;20128;-67
2022/05/26 10:37:11;;;;;;;0.25;0.20;;;;;;;25.60;36.75;99813.28;5050507;28;20045;-67
2022/05/26 10:39:46;;;;;;;0.20;0.20;;;;;;;25.62;36.70;99819.28;5031800;28;20144;-67
2022/05/26 10:42:26;;;;;;;0.30;0.20;;;;;;;25.59;36.67;99820.06;5050248;28;20045;-67
2022/05/26 10:45:12;;;;;;;0.52;0.30;;;;;;;25.63;36.73;99806.06;5050355;28;20505;-67
2022/05/26 10:47:52;;;;;;;0.52;0.25;;;;;;;25.63;36.80;99797.66;5050108;28;20501;-68
2022/05/26 10:50:29;;;;;;;0.30;0.20;;;;;;;25.63;36.68;99795.66;5050014;28;20053;-67
2022/05/26 10:53:20;;;;;;;0.38;0.30;;;;;;;25.64;37.07;99797.25;5050244;28;20132;-67
2022/05/26 10:55:58;;;;;;;0.45;0.25;;;;;;;25.65;36.70;99787.69;5049637;28;20075;-67
2022/05/26 10:58:32;;;;;;;0.38;0.13;;;;;;;25.65;36.80;99798.09;5049777;28;20045;-67
2022/05/26 11:01:14;;;;;;;0.10;0.10;;;;;;;25.67;36.72;99795.69;5049739;28;20567;-67
2022/05/26 11:03:53;;;;;;;0.63;0.35;;;;;;;25.68;37.02;99802.88;5049903;28;20048;-68
2022/05/26 11:06:28;;;;;;;0.52;0.38;;;;;;;25.68;36.95;99788.88;5048477;28;20072;-67
2022/05/26 11:09:12;;;;;;;0.20;0.20;;;;;;;25.72;36.85;99784.09;5049749;28;20045;-67
2022/05/26 11:11:43;;;;;;;0.30;0.20;;;;;;;25.74;36.94;99785.31;5049104;28;20100;-67
2022/05/26 11:17:38;;;;;;;0.28;0.20;;;;;;;25.75;36.97;99770.09;5049812;28;20090;-67
2022/05/26 11:20:14;;;;;;;0.32;0.20;;;;;;;25.72;37.04;99776.50;5044706;28;20048;-67
2022/05/26 11:22:45;;;;;;;0.20;0.10;;;;;;;25.76;36.79;99776.50;5049171;28;20143;-67
2022/05/26 11:25:15;;;;;;;0.30;0.10;;;;;;;25.76;36.74;99771.69;5049687;28;20041;-67
2022/05/26 11:27:59;;;;;;;0.40;0.20;;;;;;;25.71;37.03;99763.63;5049757;28;20049;-67
2022/05/26 11:36:49;;;;;;;0.50;0.32;;;;;;;25.77;36.76;99750.06;5049558;28;20091;-67
2022/05/26 11:39:34;;;;;;;0.40;0.30;;;;;;;25.83;37.04;99744.88;5039661;28;20049;-67
2022/05/26 11:42:12;;;;;;;0.20;0.20;;;;;;;25.81;36.98;99745.28;5049102;28;20513;-67
2022/05/26 11:44:42;;;;;;;0.43;0.30;;;;;;;25.77;36.99;99742.47;5049521;28;20328;-67
2022/05/26 11:47:26;;;;;;;0.30;0.20;;;;;;;25.75;37.02;99739.25;5049556;28;20044;-67
2022/05/26 11:49:51;;;;;;;0.52;0.25;;;;;;;25.82;36.91;99746.06;5049536;28;20045;-67
2022/05/26 11:52:34;;;;;;;0.20;0.20;;;;;;;25.81;37.20;99736.88;5049381;28;20049;-67
2022/05/26 11:55:02;;;;;;;0.50;0.30;;;;;;;25.86;36.79;99741.25;5049275;28;20052;-70
2022/05/26 11:57:35;;;;;;;0.80;0.40;;;;;;;25.85;36.81;99722.84;5049251;28;20045;-70
2022/05/26 12:00:19;;;;;;;0.85;0.30;;;;;;;25.81;37.07;99727.66;5048848;28;20115;-70
2022/05/26 12:02:47;;;;;;;0.57;0.30;;;;;;;25.81;37.04;99722.06;5049005;28;20049;-70
2022/05/26 12:05:30;;;;;;;0.22;0.22;;;;;;;25.84;37.27;99729.66;5049804;28;20555;-70
2022/05/26 12:08:01;;;;;;;0.55;0.20;;;;;;;25.86;37.26;99714.06;5052618;28;20072;-71
2022/05/26 12:10:36;;;;;;;0.28;0.28;;;;;;;25.84;37.27;99716.44;5052635;28;20056;-70
2022/05/26 12:13:21;;;;;;;0.38;0.30;;;;;;;25.82;37.27;99710.44;5052607;28;20055;-70
2022/05/26 12:16:04;;;;;;;0.88;0.40;;;;;;;25.84;36.75;99705.22;5052539;28;20045;-70
2022/05/26 12:18:52;;;;;;;0.10;0.10;;;;;;;25.83;37.27;99694.41;5052600;28;20045;-70
2022/05/26 12:21:19;;;;;;;0.30;0.30;;;;;;;25.84;37.40;99693.22;5052178;28;20099;-70
2022/05/26 12:23:44;;;;;;;0.15;0.15;;;;;;;25.87;37.15;99696.03;5052261;28;20089;-70
2022/05/26 12:26:56;;;;;;;0.70;0.40;;;;;;;25.87;37.36;99698.03;5052641;28;20477;-70
2022/05/26 12:29:43;;;;;;;0.63;0.40;;;;;;;25.92;37.14;99675.19;5047312;28;20124;-70
2022/05/26 12:32:15;;;;;;;0.38;0.30;;;;;;;25.93;37.12;99688.81;5034324;28;20501;-70
2022/05/26 12:35:14;;;;;;;0.55;0.30;;;;;;;25.93;37.32;99685.19;5052346;28;20041;-70
2022/05/26 12:37:40;;;;;;;0.38;0.32;;;;;;;25.96;37.09;99679.59;5052438;28;20051;-70